sensor_id;sensor_type;location;lat;lon;timestamp;pressure;altitude;pressure_sealevel;temperature;humidity
84714;BME280;74938;42.658;23.248;2024-01-25T00:01:28;94539.09;;;3.63;50.09
84714;BME280;74938;42.658;23.248;2024-01-25T00:03:54;94537.41;;;3.89;47.85
84714;BME280;74938;42.658;23.248;2024-01-25T00:06:19;94541.25;;;3.58;53.11
84714;BME280;74938;42.658;23.248;2024-01-25T00:08:46;94530.94;;;3.22;59.44
84714;BME280;74938;42.658;23.248;2024-01-25T00:11:11;94529.69;;;2.99;61.10
84714;BME280;74938;42.658;23.248;2024-01-25T00:13:37;94523.53;;;2.55;64.08
84714;BME280;74938;42.658;23.248;2024-01-25T00:16:03;94517.78;;;2.33;64.80
84714;BME280;74938;42.658;23.248;2024-01-25T00:18:29;94502.72;;;2.59;65.11
84714;BME280;74938;42.658;23.248;2024-01-25T00:20:55;94474.66;;;2.87;63.94
84714;BME280;74938;42.658;23.248;2024-01-25T00:23:20;94457.31;;;2.90;62.71
84714;BME280;74938;42.658;23.248;2024-01-25T00:25:45;94435.91;;;3.01;62.29
84714;BME280;74938;42.658;23.248;2024-01-25T00:28:11;94424.88;;;3.00;63.90
84714;BME280;74938;42.658;23.248;2024-01-25T00:30:38;94421.53;;;3.00;62.29
84714;BME280;74938;42.658;23.248;2024-01-25T00:33:04;94429.59;;;2.95;60.82
84714;BME280;74938;42.658;23.248;2024-01-25T00:35:30;94428.69;;;3.14;59.76
84714;BME280;74938;42.658;23.248;2024-01-25T00:37:55;94427.25;;;3.29;60.22
84714;BME280;74938;42.658;23.248;2024-01-25T00:40:21;94431.00;;;3.53;59.70
84714;BME280;74938;42.658;23.248;2024-01-25T00:42:47;94432.75;;;3.70;60.34
84714;BME280;74938;42.658;23.248;2024-01-25T00:45:22;94434.50;;;3.87;60.77
84714;BME280;74938;42.658;23.248;2024-01-25T00:47:49;94437.59;;;3.99;61.74
84714;BME280;74938;42.658;23.248;2024-01-25T00:50:15;94439.88;;;4.45;61.00
84714;BME280;74938;42.658;23.248;2024-01-25T00:52:43;94437.53;;;4.34;58.90
84714;BME280;74938;42.658;23.248;2024-01-25T00:55:09;94433.19;;;4.27;57.64
84714;BME280;74938;42.658;23.248;2024-01-25T00:57:35;94442.09;;;4.23;59.28
84714;BME280;74938;42.658;23.248;2024-01-25T01:00:01;94440.16;;;3.99;58.52
84714;BME280;74938;42.658;23.248;2024-01-25T01:02:29;94450.31;;;4.08;59.14
84714;BME280;74938;42.658;23.248;2024-01-25T01:04:59;94431.22;;;4.20;59.45
84714;BME280;74938;42.658;23.248;2024-01-25T01:07:25;94441.63;;;4.01;60.58
84714;BME280;74938;42.658;23.248;2024-01-25T01:09:50;94444.91;;;4.11;60.48
84714;BME280;74938;42.658;23.248;2024-01-25T01:12:15;94438.13;;;4.02;61.53
84714;BME280;74938;42.658;23.248;2024-01-25T01:14:42;94435.03;;;4.42;60.39
84714;BME280;74938;42.658;23.248;2024-01-25T01:17:07;94434.16;;;4.34;60.58
84714;BME280;74938;42.658;23.248;2024-01-25T01:19:32;94431.88;;;4.23;60.85
84714;BME280;74938;42.658;23.248;2024-01-25T01:21:58;94428.72;;;4.29;57.59
84714;BME280;74938;42.658;23.248;2024-01-25T01:24:24;94401.75;;;4.16;59.17
84714;BME280;74938;42.658;23.248;2024-01-25T01:26:49;94382.09;;;4.17;59.37
84714;BME280;74938;42.658;23.248;2024-01-25T01:29:16;94389.78;;;4.17;59.73
84714;BME280;74938;42.658;23.248;2024-01-25T01:31:41;94387.44;;;3.98;59.09
84714;BME280;74938;42.658;23.248;2024-01-25T01:34:06;94384.97;;;3.88;59.50
84714;BME280;74938;42.658;23.248;2024-01-25T01:36:32;94395.06;;;4.15;58.79
84714;BME280;74938;42.658;23.248;2024-01-25T01:38:57;94398.22;;;4.09;59.90
84714;BME280;74938;42.658;23.248;2024-01-25T01:41:22;94386.63;;;4.23;60.39
84714;BME280;74938;42.658;23.248;2024-01-25T01:43:52;94382.25;;;4.75;60.01
84714;BME280;74938;42.658;23.248;2024-01-25T01:48:51;94379.78;;;5.08;57.51
84714;BME280;74938;42.658;23.248;2024-01-25T01:51:17;94376.88;;;4.95;57.99
84714;BME280;74938;42.658;23.248;2024-01-25T01:53:42;94382.00;;;4.95;57.76
84714;BME280;74938;42.658;23.248;2024-01-25T01:56:09;94368.63;;;4.75;59.92
84714;BME280;74938;42.658;23.248;2024-01-25T01:58:34;94368.91;;;5.14;59.74
84714;BME280;74938;42.658;23.248;2024-01-25T02:01:01;94362.41;;;5.36;60.48
84714;BME280;74938;42.658;23.248;2024-01-25T02:03:27;94371.84;;;5.35;58.85
84714;BME280;74938;42.658;23.248;2024-01-25T02:05:53;94365.44;;;5.31;59.71
84714;BME280;74938;42.658;23.248;2024-01-25T02:08:19;94367.03;;;5.56;59.04
84714;BME280;74938;42.658;23.248;2024-01-25T02:10:44;94351.00;;;5.54;60.81
84714;BME280;74938;42.658;23.248;2024-01-25T02:13:09;94339.00;;;5.63;61.52
84714;BME280;74938;42.658;23.248;2024-01-25T02:15:35;94345.41;;;5.75;61.04
84714;BME280;74938;42.658;23.248;2024-01-25T02:18:01;94347.19;;;5.67;59.78
84714;BME280;74938;42.658;23.248;2024-01-25T02:20:26;94356.16;;;5.63;60.62
84714;BME280;74938;42.658;23.248;2024-01-25T02:22:51;94351.19;;;5.93;60.32
84714;BME280;74938;42.658;23.248;2024-01-25T02:25:17;94351.03;;;6.03;61.25
84714;BME280;74938;42.658;23.248;2024-01-25T02:27:42;94344.56;;;6.23;61.61
84714;BME280;74938;42.658;23.248;2024-01-25T02:30:08;94344.81;;;6.45;61.09
84714;BME280;74938;42.658;23.248;2024-01-25T02:32:34;94352.03;;;6.49;61.12
84714;BME280;74938;42.658;23.248;2024-01-25T02:34:59;94345.47;;;6.47;61.07
84714;BME280;74938;42.658;23.248;2024-01-25T02:37:25;94326.06;;;6.44;61.65
84714;BME280;74938;42.658;23.248;2024-01-25T02:39:51;94340.31;;;6.47;61.25
84714;BME280;74938;42.658;23.248;2024-01-25T02:42:16;94338.13;;;6.36;60.73
84714;BME280;74938;42.658;23.248;2024-01-25T02:44:43;94335.19;;;6.47;60.57
84714;BME280;74938;42.658;23.248;2024-01-25T02:47:08;94327.50;;;6.47;60.12
84714;BME280;74938;42.658;23.248;2024-01-25T02:49:34;94318.19;;;6.46;61.06
84714;BME280;74938;42.658;23.248;2024-01-25T02:51:59;94309.03;;;6.51;61.11
84714;BME280;74938;42.658;23.248;2024-01-25T02:54:25;94327.47;;;6.55;61.54
84714;BME280;74938;42.658;23.248;2024-01-25T02:56:50;94320.59;;;6.47;61.26
84714;BME280;74938;42.658;23.248;2024-01-25T02:59:15;94331.41;;;6.26;61.24
84714;BME280;74938;42.658;23.248;2024-01-25T03:01:41;94325.81;;;6.23;59.67
84714;BME280;74938;42.658;23.248;2024-01-25T03:04:07;94335.41;;;6.29;61.02
84714;BME280;74938;42.658;23.248;2024-01-25T03:06:32;94347.28;;;6.30;60.18
84714;BME280;74938;42.658;23.248;2024-01-25T03:08:57;94349.34;;;6.35;61.05
84714;BME280;74938;42.658;23.248;2024-01-25T03:11:23;94342.25;;;6.45;60.52
84714;BME280;74938;42.658;23.248;2024-01-25T03:13:48;94347.56;;;6.43;61.18
84714;BME280;74938;42.658;23.248;2024-01-25T03:16:13;94361.50;;;6.41;60.78
84714;BME280;74938;42.658;23.248;2024-01-25T03:18:39;94340.22;;;6.32;61.40
84714;BME280;74938;42.658;23.248;2024-01-25T03:21:04;94335.25;;;6.31;61.68
84714;BME280;74938;42.658;23.248;2024-01-25T03:23:30;94320.50;;;6.24;61.33
84714;BME280;74938;42.658;23.248;2024-01-25T03:25:55;94349.19;;;6.36;61.45
84714;BME280;74938;42.658;23.248;2024-01-25T03:28:20;94331.44;;;6.18;60.89
84714;BME280;74938;42.658;23.248;2024-01-25T03:30:46;94328.88;;;6.18;61.03
84714;BME280;74938;42.658;23.248;2024-01-25T03:33:11;94314.75;;;6.14;60.99
84714;BME280;74938;42.658;23.248;2024-01-25T03:35:37;94317.78;;;6.26;61.51
84714;BME280;74938;42.658;23.248;2024-01-25T03:38:02;94317.00;;;6.17;60.91
84714;BME280;74938;42.658;23.248;2024-01-25T03:40:27;94298.03;;;6.26;61.34
84714;BME280;74938;42.658;23.248;2024-01-25T03:42:53;94290.34;;;6.26;61.68
84714;BME280;74938;42.658;23.248;2024-01-25T03:45:18;94280.53;;;6.38;60.48
84714;BME280;74938;42.658;23.248;2024-01-25T03:47:44;94295.94;;;6.30;60.87
84714;BME280;74938;42.658;23.248;2024-01-25T03:50:09;94295.47;;;6.35;60.59
84714;BME280;74938;42.658;23.248;2024-01-25T03:52:35;94308.50;;;6.17;61.33
84714;BME280;74938;42.658;23.248;2024-01-25T03:55:00;94289.69;;;6.33;60.16
84714;BME280;74938;42.658;23.248;2024-01-25T03:57:26;94282.63;;;6.26;60.51
84714;BME280;74938;42.658;23.248;2024-01-25T03:59:51;94245.47;;;6.22;61.15
84714;BME280;74938;42.658;23.248;2024-01-25T04:02:16;94242.44;;;6.50;60.59
84714;BME280;74938;42.658;23.248;2024-01-25T04:04:42;94232.63;;;6.53;60.37
84714;BME280;74938;42.658;23.248;2024-01-25T04:07:07;94262.44;;;6.62;59.78
84714;BME280;74938;42.658;23.248;2024-01-25T04:09:32;94262.72;;;6.68;60.34
84714;BME280;74938;42.658;23.248;2024-01-25T04:11:58;94273.31;;;6.73;59.13
84714;BME280;74938;42.658;23.248;2024-01-25T04:14:23;94267.28;;;6.57;59.34
84714;BME280;74938;42.658;23.248;2024-01-25T04:16:49;94276.22;;;6.70;58.83
84714;BME280;74938;42.658;23.248;2024-01-25T04:19:14;94278.47;;;6.64;59.59
84714;BME280;74938;42.658;23.248;2024-01-25T04:21:39;94272.53;;;6.64;58.46
84714;BME280;74938;42.658;23.248;2024-01-25T04:24:05;94279.28;;;6.65;58.94
84714;BME280;74938;42.658;23.248;2024-01-25T04:26:30;94273.72;;;6.53;59.44
84714;BME280;74938;42.658;23.248;2024-01-25T04:28:56;94269.84;;;6.57;58.61
84714;BME280;74938;42.658;23.248;2024-01-25T04:31:21;94261.53;;;6.47;58.13
84714;BME280;74938;42.658;23.248;2024-01-25T04:33:47;94262.59;;;6.61;58.18
84714;BME280;74938;42.658;23.248;2024-01-25T04:36:12;94257.34;;;6.54;57.93
84714;BME280;74938;42.658;23.248;2024-01-25T04:38:38;94265.56;;;6.42;58.10
84714;BME280;74938;42.658;23.248;2024-01-25T04:41:04;94279.63;;;6.23;58.57
84714;BME280;74938;42.658;23.248;2024-01-25T04:43:34;94305.13;;;6.16;59.68
84714;BME280;74938;42.658;23.248;2024-01-25T04:46:00;94310.91;;;6.10;59.13
84714;BME280;74938;42.658;23.248;2024-01-25T04:48:26;94319.56;;;6.09;59.16
84714;BME280;74938;42.658;23.248;2024-01-25T04:50:51;94311.03;;;6.25;58.49
84714;BME280;74938;42.658;23.248;2024-01-25T04:53:16;94308.03;;;6.21;58.47
84714;BME280;74938;42.658;23.248;2024-01-25T04:55:42;94315.72;;;6.13;58.04
84714;BME280;74938;42.658;23.248;2024-01-25T04:58:07;94324.06;;;6.15;57.56
84714;BME280;74938;42.658;23.248;2024-01-25T05:00:33;94335.28;;;6.22;57.25
84714;BME280;74938;42.658;23.248;2024-01-25T05:02:59;94339.94;;;6.19;56.98
84714;BME280;74938;42.658;23.248;2024-01-25T05:05:24;94350.38;;;6.17;56.91
84714;BME280;74938;42.658;23.248;2024-01-25T05:07:50;94351.47;;;6.23;56.46
84714;BME280;74938;42.658;23.248;2024-01-25T05:10:15;94346.47;;;6.29;56.17
84714;BME280;74938;42.658;23.248;2024-01-25T05:12:41;94343.59;;;6.24;55.84
84714;BME280;74938;42.658;23.248;2024-01-25T05:15:06;94352.91;;;6.34;55.50
84714;BME280;74938;42.658;23.248;2024-01-25T05:17:33;94352.94;;;6.17;56.31
84714;BME280;74938;42.658;23.248;2024-01-25T05:19:58;94347.47;;;6.20;56.77
84714;BME280;74938;42.658;23.248;2024-01-25T05:22:24;94372.97;;;6.14;56.00
84714;BME280;74938;42.658;23.248;2024-01-25T05:24:49;94372.97;;;6.14;56.18
84714;BME280;74938;42.658;23.248;2024-01-25T05:27:14;94373.16;;;6.04;56.61
84714;BME280;74938;42.658;23.248;2024-01-25T05:29:40;94365.31;;;6.06;56.64
84714;BME280;74938;42.658;23.248;2024-01-25T05:32:05;94374.59;;;5.99;57.84
84714;BME280;74938;42.658;23.248;2024-01-25T05:34:31;94387.91;;;5.94;56.80
84714;BME280;74938;42.658;23.248;2024-01-25T05:36:56;94389.50;;;5.87;57.50
84714;BME280;74938;42.658;23.248;2024-01-25T05:39:21;94377.00;;;5.84;57.70
84714;BME280;74938;42.658;23.248;2024-01-25T05:41:47;94389.81;;;5.92;57.17
84714;BME280;74938;42.658;23.248;2024-01-25T05:44:12;94415.81;;;6.05;57.33
84714;BME280;74938;42.658;23.248;2024-01-25T05:46:38;94423.03;;;6.02;57.39
84714;BME280;74938;42.658;23.248;2024-01-25T05:49:03;94423.50;;;5.89;58.21
84714;BME280;74938;42.658;23.248;2024-01-25T05:51:29;94426.69;;;5.91;57.41
84714;BME280;74938;42.658;23.248;2024-01-25T05:53:54;94432.59;;;5.75;58.32
84714;BME280;74938;42.658;23.248;2024-01-25T05:56:19;94440.47;;;5.82;58.65
84714;BME280;74938;42.658;23.248;2024-01-25T05:58:45;94438.72;;;5.90;58.42
84714;BME280;74938;42.658;23.248;2024-01-25T06:01:10;94424.47;;;5.96;57.66
84714;BME280;74938;42.658;23.248;2024-01-25T06:03:35;94416.59;;;5.81;58.96
84714;BME280;74938;42.658;23.248;2024-01-25T06:06:01;94433.25;;;5.77;57.86
84714;BME280;74938;42.658;23.248;2024-01-25T06:08:26;94444.31;;;5.86;58.86
84714;BME280;74938;42.658;23.248;2024-01-25T06:10:51;94437.56;;;5.77;58.52
84714;BME280;74938;42.658;23.248;2024-01-25T06:13:17;94424.28;;;5.81;58.13
84714;BME280;74938;42.658;23.248;2024-01-25T06:15:42;94424.91;;;5.83;58.39
84714;BME280;74938;42.658;23.248;2024-01-25T06:18:07;94422.19;;;5.77;58.08
84714;BME280;74938;42.658;23.248;2024-01-25T06:20:33;94427.47;;;5.67;59.08
84714;BME280;74938;42.658;23.248;2024-01-25T06:22:58;94428.94;;;5.70;59.72
84714;BME280;74938;42.658;23.248;2024-01-25T06:25:24;94431.00;;;5.74;59.02
84714;BME280;74938;42.658;23.248;2024-01-25T06:27:49;94450.69;;;5.74;59.36
84714;BME280;74938;42.658;23.248;2024-01-25T06:30:15;94437.56;;;5.77;58.70
84714;BME280;74938;42.658;23.248;2024-01-25T06:32:40;94437.88;;;5.74;58.92
84714;BME280;74938;42.658;23.248;2024-01-25T06:35:06;94435.16;;;5.75;58.70
84714;BME280;74938;42.658;23.248;2024-01-25T06:37:31;94422.19;;;5.77;58.58
84714;BME280;74938;42.658;23.248;2024-01-25T06:39:57;94414.03;;;5.81;58.39
84714;BME280;74938;42.658;23.248;2024-01-25T06:42:22;94410.50;;;5.82;59.17
84714;BME280;74938;42.658;23.248;2024-01-25T06:44:47;94429.72;;;5.70;59.17
84714;BME280;74938;42.658;23.248;2024-01-25T06:47:13;94441.75;;;5.70;58.77
84714;BME280;74938;42.658;23.248;2024-01-25T06:49:38;94447.84;;;5.69;58.95
84714;BME280;74938;42.658;23.248;2024-01-25T06:52:04;94444.47;;;5.68;59.14
84714;BME280;74938;42.658;23.248;2024-01-25T06:54:30;94436.75;;;5.76;59.50
84714;BME280;74938;42.658;23.248;2024-01-25T06:56:56;94442.72;;;5.85;58.81
84714;BME280;74938;42.658;23.248;2024-01-25T06:59:21;94449.13;;;5.89;58.00
84714;BME280;74938;42.658;23.248;2024-01-25T07:01:47;94440.16;;;5.85;59.75
84714;BME280;74938;42.658;23.248;2024-01-25T07:04:12;94433.09;;;5.71;59.74
84714;BME280;74938;42.658;23.248;2024-01-25T07:06:38;94432.75;;;5.74;58.58
84714;BME280;74938;42.658;23.248;2024-01-25T07:09:03;94443.69;;;5.84;57.85
84714;BME280;74938;42.658;23.248;2024-01-25T07:11:29;94429.09;;;5.84;57.79
84714;BME280;74938;42.658;23.248;2024-01-25T07:13:54;94434.41;;;5.91;58.43
84714;BME280;74938;42.658;23.248;2024-01-25T07:16:19;94424.28;;;5.81;58.88
84714;BME280;74938;42.658;23.248;2024-01-25T07:18:45;94421.88;;;5.80;58.57
84714;BME280;74938;42.658;23.248;2024-01-25T07:21:10;94420.91;;;5.81;58.30
84714;BME280;74938;42.658;23.248;2024-01-25T07:23:36;94436.63;;;5.86;57.27
84714;BME280;74938;42.658;23.248;2024-01-25T07:26:01;94438.84;;;5.73;59.12
84714;BME280;74938;42.658;23.248;2024-01-25T07:28:27;94446.56;;;5.81;57.87
84714;BME280;74938;42.658;23.248;2024-01-25T07:30:52;94443.69;;;5.84;57.84
84714;BME280;74938;42.658;23.248;2024-01-25T07:33:17;94444.47;;;5.84;57.42
84714;BME280;74938;42.658;23.248;2024-01-25T07:35:43;94438.22;;;5.87;57.53
84714;BME280;74938;42.658;23.248;2024-01-25T07:38:12;94435.47;;;5.72;57.96
84714;BME280;74938;42.658;23.248;2024-01-25T07:40:37;94434.56;;;5.89;58.18
84714;BME280;74938;42.658;23.248;2024-01-25T07:43:03;94440.19;;;6.01;57.35
84714;BME280;74938;42.658;23.248;2024-01-25T07:45:28;94443.69;;;5.92;57.68
84714;BME280;74938;42.658;23.248;2024-01-25T07:47:54;94436.66;;;5.94;58.01
84714;BME280;74938;42.658;23.248;2024-01-25T07:50:19;94439.84;;;5.96;57.40
84714;BME280;74938;42.658;23.248;2024-01-25T07:52:44;94447.56;;;6.04;57.04
84714;BME280;74938;42.658;23.248;2024-01-25T07:55:10;94444.66;;;5.99;57.95
84714;BME280;74938;42.658;23.248;2024-01-25T07:57:35;94438.25;;;6.11;56.54
84714;BME280;74938;42.658;23.248;2024-01-25T08:00:01;94445.28;;;6.25;55.60
84714;BME280;74938;42.658;23.248;2024-01-25T08:02:26;94437.59;;;6.09;55.78
84714;BME280;74938;42.658;23.248;2024-01-25T08:04:52;94445.97;;;6.19;56.20
84714;BME280;74938;42.658;23.248;2024-01-25T08:07:18;94450.78;;;6.22;55.67
84714;BME280;74938;42.658;23.248;2024-01-25T08:09:43;94445.31;;;6.17;55.03
84714;BME280;74938;42.658;23.248;2024-01-25T08:12:09;94444.34;;;6.18;55.87
84714;BME280;74938;42.658;23.248;2024-01-25T08:14:34;94450.44;;;6.17;55.61
84714;BME280;74938;42.658;23.248;2024-01-25T08:16:59;94456.03;;;6.29;54.89
84714;BME280;74938;42.658;23.248;2024-01-25T08:19:25;94466.00;;;6.40;55.84
84714;BME280;74938;42.658;23.248;2024-01-25T08:21:51;94447.69;;;6.27;54.56
84714;BME280;74938;42.658;23.248;2024-01-25T08:24:16;94458.47;;;6.22;54.65
84714;BME280;74938;42.658;23.248;2024-01-25T08:26:41;94445.81;;;6.21;54.35
84714;BME280;74938;42.658;23.248;2024-01-25T08:29:07;94453.63;;;6.27;55.92
84714;BME280;74938;42.658;23.248;2024-01-25T08:31:32;94451.06;;;6.27;55.40
84714;BME280;74938;42.658;23.248;2024-01-25T08:33:59;94453.94;;;6.41;54.91
84714;BME280;74938;42.658;23.248;2024-01-25T08:36:24;94454.91;;;6.32;55.24
84714;BME280;74938;42.658;23.248;2024-01-25T08:38:50;94463.25;;;6.25;54.90
84714;BME280;74938;42.658;23.248;2024-01-25T08:41:15;94473.84;;;6.31;54.57
84714;BME280;74938;42.658;23.248;2024-01-25T08:43:42;94483.97;;;6.32;55.06
84714;BME280;74938;42.658;23.248;2024-01-25T08:46:07;94487.50;;;6.31;55.50
84714;BME280;74938;42.658;23.248;2024-01-25T08:48:33;94496.31;;;6.37;54.48
84714;BME280;74938;42.658;23.248;2024-01-25T08:50:59;94486.84;;;6.45;53.59
84714;BME280;74938;42.658;23.248;2024-01-25T08:53:25;94485.22;;;6.44;54.54
84714;BME280;74938;42.658;23.248;2024-01-25T08:55:55;94490.84;;;6.48;54.66
84714;BME280;74938;42.658;23.248;2024-01-25T08:58:21;94487.94;;;6.59;53.43
84714;BME280;74938;42.658;23.248;2024-01-25T09:00:47;94476.75;;;6.36;55.18
84714;BME280;74938;42.658;23.248;2024-01-25T09:03:14;94478.31;;;6.61;54.81
84714;BME280;74938;42.658;23.248;2024-01-25T09:05:39;94480.72;;;6.62;54.58
84714;BME280;74938;42.658;23.248;2024-01-25T09:08:13;94465.25;;;6.79;53.26
84714;BME280;74938;42.658;23.248;2024-01-25T09:10:41;94468.69;;;6.55;54.29
84714;BME280;74938;42.658;23.248;2024-01-25T09:13:06;94464.22;;;6.49;54.94
84714;BME280;74938;42.658;23.248;2024-01-25T09:15:32;94461.16;;;6.45;54.78
84714;BME280;74938;42.658;23.248;2024-01-25T09:17:57;94454.13;;;6.15;55.81
84714;BME280;74938;42.658;23.248;2024-01-25T09:20:23;94443.53;;;6.26;55.48
84714;BME280;74938;42.658;23.248;2024-01-25T09:22:48;94448.81;;;6.33;56.06
84714;BME280;74938;42.658;23.248;2024-01-25T09:25:15;94447.19;;;6.56;55.06
84714;BME280;74938;42.658;23.248;2024-01-25T09:27:41;94443.31;;;6.68;54.46
84714;BME280;74938;42.658;23.248;2024-01-25T09:30:07;94434.59;;;6.85;53.82
84714;BME280;74938;42.658;23.248;2024-01-25T09:32:33;94434.28;;;6.80;54.91
84714;BME280;74938;42.658;23.248;2024-01-25T09:34:59;94442.63;;;6.82;54.92
84714;BME280;74938;42.658;23.248;2024-01-25T09:37:24;94438.03;;;7.09;53.97
84714;BME280;74938;42.658;23.248;2024-01-25T09:39:52;94436.78;;;7.05;53.56
84714;BME280;74938;42.658;23.248;2024-01-25T09:42:18;94441.13;;;6.96;54.11
84714;BME280;74938;42.658;23.248;2024-01-25T09:44:44;94428.66;;;6.85;54.72
84714;BME280;74938;42.658;23.248;2024-01-25T09:47:10;94425.25;;;6.92;54.63
84714;BME280;74938;42.658;23.248;2024-01-25T09:49:36;94422.50;;;6.94;54.04
84714;BME280;74938;42.658;23.248;2024-01-25T09:52:03;94405.63;;;6.99;54.22
84714;BME280;74938;42.658;23.248;2024-01-25T09:54:35;94400.81;;;6.96;54.33
84714;BME280;74938;42.658;23.248;2024-01-25T09:57:16;94390.88;;;6.93;53.00
84714;BME280;74938;42.658;23.248;2024-01-25T09:59:45;94392.84;;;6.83;54.20
84714;BME280;74938;42.658;23.248;2024-01-25T10:02:11;94395.41;;;6.91;53.83
84714;BME280;74938;42.658;23.248;2024-01-25T10:04:36;94398.41;;;6.95;54.34
84714;BME280;74938;42.658;23.248;2024-01-25T10:07:02;94380.00;;;6.83;54.10
84714;BME280;74938;42.658;23.248;2024-01-25T10:09:28;94392.53;;;6.78;54.58
84714;BME280;74938;42.658;23.248;2024-01-25T10:11:56;94379.84;;;6.77;54.25
84714;BME280;74938;42.658;23.248;2024-01-25T10:14:21;94379.19;;;6.91;54.41
84714;BME280;74938;42.658;23.248;2024-01-25T10:16:47;94373.66;;;7.02;54.36
84714;BME280;74938;42.658;23.248;2024-01-25T10:19:12;94366.19;;;7.15;54.60
84714;BME280;74938;42.658;23.248;2024-01-25T10:21:41;94376.41;;;7.01;54.93
84714;BME280;74938;42.658;23.248;2024-01-25T10:24:06;94376.63;;;6.83;55.06
84714;BME280;74938;42.658;23.248;2024-01-25T10:26:34;94374.78;;;6.99;54.67
84714;BME280;74938;42.658;23.248;2024-01-25T10:29:00;94374.69;;;7.24;53.09
84714;BME280;74938;42.658;23.248;2024-01-25T10:31:26;94360.09;;;7.16;52.43
84714;BME280;74938;42.658;23.248;2024-01-25T10:33:53;94368.25;;;7.20;53.11
84714;BME280;74938;42.658;23.248;2024-01-25T10:36:20;94377.38;;;6.99;53.71
84714;BME280;74938;42.658;23.248;2024-01-25T10:38:48;94371.22;;;7.09;53.19
84714;BME280;74938;42.658;23.248;2024-01-25T10:41:14;94374.47;;;7.03;54.36
84714;BME280;74938;42.658;23.248;2024-01-25T10:43:40;94372.59;;;7.19;52.40
84714;BME280;74938;42.658;23.248;2024-01-25T10:46:06;94359.19;;;7.09;52.06
84714;BME280;74938;42.658;23.248;2024-01-25T10:48:32;94360.56;;;7.20;52.84
84714;BME280;74938;42.658;23.248;2024-01-25T10:50:58;94348.44;;;7.28;53.23
84714;BME280;74938;42.658;23.248;2024-01-25T10:53:32;94356.31;;;7.04;51.45
84714;BME280;74938;42.658;23.248;2024-01-25T10:55:57;94353.28;;;7.01;52.05
84714;BME280;74938;42.658;23.248;2024-01-25T10:58:23;94337.81;;;7.09;51.81
84714;BME280;74938;42.658;23.248;2024-01-25T11:00:51;94347.72;;;7.12;51.42
84714;BME280;74938;42.658;23.248;2024-01-25T11:03:18;94345.34;;;7.10;51.99
84714;BME280;74938;42.658;23.248;2024-01-25T11:05:43;94337.63;;;7.10;52.26
84714;BME280;74938;42.658;23.248;2024-01-25T11:08:17;94331.78;;;7.24;51.53
84714;BME280;74938;42.658;23.248;2024-01-25T11:10:49;94322.44;;;7.01;52.19
84714;BME280;74938;42.658;23.248;2024-01-25T11:13:16;94314.38;;;7.04;52.64
84714;BME280;74938;42.658;23.248;2024-01-25T11:15:48;94309.44;;;6.94;52.84
84714;BME280;74938;42.658;23.248;2024-01-25T11:18:14;94304.03;;;6.89;52.72
84714;BME280;74938;42.658;23.248;2024-01-25T11:20:39;94299.47;;;6.99;52.30
84714;BME280;74938;42.658;23.248;2024-01-25T11:23:06;94293.88;;;6.95;52.55
84714;BME280;74938;42.658;23.248;2024-01-25T11:25:35;94305.25;;;7.01;52.70
84714;BME280;74938;42.658;23.248;2024-01-25T11:28:02;94309.25;;;7.04;53.58
84714;BME280;74938;42.658;23.248;2024-01-25T11:30:29;94306.72;;;6.95;53.63
84714;BME280;74938;42.658;23.248;2024-01-25T11:32:55;94305.03;;;6.80;53.76
84714;BME280;74938;42.658;23.248;2024-01-25T11:35:21;94301.28;;;6.59;54.37
84714;BME280;74938;42.658;23.248;2024-01-25T11:37:48;94293.78;;;6.58;54.52
84714;BME280;74938;42.658;23.248;2024-01-25T11:40:15;94305.81;;;6.49;54.27
84714;BME280;74938;42.658;23.248;2024-01-25T11:42:43;94303.84;;;6.59;54.95
84714;BME280;74938;42.658;23.248;2024-01-25T11:45:12;94299.97;;;6.63;53.10
84714;BME280;74938;42.658;23.248;2024-01-25T11:47:38;94300.13;;;6.70;53.90
84714;BME280;74938;42.658;23.248;2024-01-25T11:50:05;94296.63;;;6.63;53.43
84714;BME280;74938;42.658;23.248;2024-01-25T11:52:32;94303.25;;;6.57;54.37
84714;BME280;74938;42.658;23.248;2024-01-25T11:55:02;94299.88;;;6.57;54.02
84714;BME280;74938;42.658;23.248;2024-01-25T11:57:27;94294.50;;;6.67;54.09
84714;BME280;74938;42.658;23.248;2024-01-25T11:59:55;94299.69;;;6.58;54.61
84714;BME280;74938;42.658;23.248;2024-01-25T12:02:20;94307.59;;;6.49;54.90
84714;BME280;74938;42.658;23.248;2024-01-25T12:04:47;94307.44;;;6.50;54.18
84714;BME280;74938;42.658;23.248;2024-01-25T12:07:12;94320.41;;;6.57;53.28
84714;BME280;74938;42.658;23.248;2024-01-25T12:09:38;94324.03;;;6.71;53.45
84714;BME280;74938;42.658;23.248;2024-01-25T12:12:04;94326.16;;;6.59;54.23
84714;BME280;74938;42.658;23.248;2024-01-25T12:14:30;94313.94;;;6.69;53.63
84714;BME280;74938;42.658;23.248;2024-01-25T12:16:56;94302.53;;;6.72;53.29
84714;BME280;74938;42.658;23.248;2024-01-25T12:19:21;94299.16;;;6.71;52.55
84714;BME280;74938;42.658;23.248;2024-01-25T12:21:47;94292.09;;;6.73;52.97
84714;BME280;74938;42.658;23.248;2024-01-25T12:24:13;94289.88;;;6.62;53.22
84714;BME280;74938;42.658;23.248;2024-01-25T12:26:39;94287.28;;;6.70;51.52
84714;BME280;74938;42.658;23.248;2024-01-25T12:29:06;94288.09;;;6.93;52.28
84714;BME280;74938;42.658;23.248;2024-01-25T12:31:33;94282.09;;;7.09;52.17
84714;BME280;74938;42.658;23.248;2024-01-25T12:34:00;94283.06;;;7.08;52.25
84714;BME280;74938;42.658;23.248;2024-01-25T12:36:26;94270.59;;;7.20;52.04
84714;BME280;74938;42.658;23.248;2024-01-25T12:38:51;94274.94;;;7.42;50.95
84714;BME280;74938;42.658;23.248;2024-01-25T12:41:17;94256.31;;;7.40;51.08
84714;BME280;74938;42.658;23.248;2024-01-25T12:43:42;94258.25;;;7.38;50.88
84714;BME280;74938;42.658;23.248;2024-01-25T12:46:08;94248.66;;;7.47;50.87
84714;BME280;74938;42.658;23.248;2024-01-25T12:48:33;94240.78;;;7.48;49.62
84714;BME280;74938;42.658;23.248;2024-01-25T12:50:59;94243.44;;;7.40;49.85
84714;BME280;74938;42.658;23.248;2024-01-25T12:53:25;94234.53;;;7.28;50.79
84714;BME280;74938;42.658;23.248;2024-01-25T12:55:50;94231.94;;;7.28;50.40